sensor_id;sensor_type;location;lat;lon;timestamp;temperature;humidity
4596;DHT22;2310;49.978;8.742;2023-01-15T00:01:24;10.70;99.90
4596;DHT22;2310;49.978;8.742;2023-01-15T00:05:26;10.80;99.90
4596;DHT22;2310;49.978;8.742;2023-01-15T00:09:27;10.90;99.90
4596;DHT22;2310;49.978;8.742;2023-01-15T00:13:29;10.90;99.90
4596;DHT22;2310;49.978;8.742;2023-01-15T00:17:30;11.00;99.90
4596;DHT22;2310;49.978;8.742;2023-01-15T00:21:31;10.90;99.90
4596;DHT22;2310;49.978;8.742;2023-01-15T00:25:33;11.00;99.90
4596;DHT22;2310;49.978;8.742;2023-01-15T00:29:52;11.00;99.90
4596;DHT22;2310;49.978;8.742;2023-01-15T00:33:54;11.10;99.90
4596;DHT22;2310;49.978;8.742;2023-01-15T00:37:55;11.20;99.90
4596;DHT22;2310;49.978;8.742;2023-01-15T00:41:56;11.10;99.90
4596;DHT22;2310;49.978;8.742;2023-01-15T00:45:58;11.20;99.90
4596;DHT22;2310;49.978;8.742;2023-01-15T00:49:59;11.20;99.90
4596;DHT22;2310;49.978;8.742;2023-01-15T00:54:01;11.20;99.90
4596;DHT22;2310;49.978;8.742;2023-01-15T00:58:02;11.40;99.90
4596;DHT22;2310;49.978;8.742;2023-01-15T01:02:04;11.60;99.90
4596;DHT22;2310;49.978;8.742;2023-01-15T01:06:05;11.50;99.90
4596;DHT22;2310;49.978;8.742;2023-01-15T01:10:08;11.20;99.90
4596;DHT22;2310;49.978;8.742;2023-01-15T01:14:11;11.30;99.90
4596;DHT22;2310;49.978;8.742;2023-01-15T01:18:12;11.20;99.90
4596;DHT22;2310;49.978;8.742;2023-01-15T01:22:13;11.10;99.90
4596;DHT22;2310;49.978;8.742;2023-01-15T01:26:15;11.20;99.90
4596;DHT22;2310;49.978;8.742;2023-01-15T01:30:17;11.10;99.90
4596;DHT22;2310;49.978;8.742;2023-01-15T01:34:18;11.20;99.90
4596;DHT22;2310;49.978;8.742;2023-01-15T01:38:20;11.30;99.90
4596;DHT22;2310;49.978;8.742;2023-01-15T01:42:21;11.50;99.90
4596;DHT22;2310;49.978;8.742;2023-01-15T01:46:24;11.50;99.90
4596;DHT22;2310;49.978;8.742;2023-01-15T01:50:27;11.60;99.90
4596;DHT22;2310;49.978;8.742;2023-01-15T01:54:30;11.70;99.90
4596;DHT22;2310;49.978;8.742;2023-01-15T01:58:34;11.80;99.90
4596;DHT22;2310;49.978;8.742;2023-01-15T02:02:36;11.70;99.90
4596;DHT22;2310;49.978;8.742;2023-01-15T02:06:40;11.60;99.90
4596;DHT22;2310;49.978;8.742;2023-01-15T02:10:51;11.60;99.90
4596;DHT22;2310;49.978;8.742;2023-01-15T02:15:17;11.60;99.90
4596;DHT22;2310;49.978;8.742;2023-01-15T02:28:13;11.30;99.90
4596;DHT22;2310;49.978;8.742;2023-01-15T02:32:28;11.30;99.90
4596;DHT22;2310;49.978;8.742;2023-01-15T02:36:22;11.40;99.90
4596;DHT22;2310;49.978;8.742;2023-01-15T02:40:25;11.40;99.90
4596;DHT22;2310;49.978;8.742;2023-01-15T02:44:29;11.50;99.90
4596;DHT22;2310;49.978;8.742;2023-01-15T02:48:32;11.50;99.90
4596;DHT22;2310;49.978;8.742;2023-01-15T02:52:41;11.50;99.90
4596;DHT22;2310;49.978;8.742;2023-01-15T02:56:44;11.60;99.90
4596;DHT22;2310;49.978;8.742;2023-01-15T03:00:48;11.50;99.90
4596;DHT22;2310;49.978;8.742;2023-01-15T03:05:14;11.30;99.90
4596;DHT22;2310;49.978;8.742;2023-01-15T03:09:16;11.10;99.90
4596;DHT22;2310;49.978;8.742;2023-01-15T03:13:30;11.10;99.90
4596;DHT22;2310;49.978;8.742;2023-01-15T03:17:57;11.00;99.90
4596;DHT22;2310;49.978;8.742;2023-01-15T03:25:54;10.60;99.90
4596;DHT22;2310;49.978;8.742;2023-01-15T03:30:05;10.60;99.90
4596;DHT22;2310;49.978;8.742;2023-01-15T03:34:07;10.60;99.90
4596;DHT22;2310;49.978;8.742;2023-01-15T03:38:11;10.60;99.90
4596;DHT22;2310;49.978;8.742;2023-01-15T03:42:19;10.60;99.90
4596;DHT22;2310;49.978;8.742;2023-01-15T03:50:53;10.50;99.90
4596;DHT22;2310;49.978;8.742;2023-01-15T03:59:18;10.40;99.90
4596;DHT22;2310;49.978;8.742;2023-01-15T04:03:22;10.30;99.90
4596;DHT22;2310;49.978;8.742;2023-01-15T04:07:25;10.00;99.90
4596;DHT22;2310;49.978;8.742;2023-01-15T04:11:27;9.50;99.90
4596;DHT22;2310;49.978;8.742;2023-01-15T04:15:28;9.00;99.90
4596;DHT22;2310;49.978;8.742;2023-01-15T04:19:30;8.90;99.90
4596;DHT22;2310;49.978;8.742;2023-01-15T04:23:31;9.10;99.90
4596;DHT22;2310;49.978;8.742;2023-01-15T04:27:32;8.90;99.90
4596;DHT22;2310;49.978;8.742;2023-01-15T04:31:34;8.80;99.90
4596;DHT22;2310;49.978;8.742;2023-01-15T04:35:36;8.50;99.90
4596;DHT22;2310;49.978;8.742;2023-01-15T04:39:38;8.60;99.90
4596;DHT22;2310;49.978;8.742;2023-01-15T04:43:39;8.60;99.90
4596;DHT22;2310;49.978;8.742;2023-01-15T04:47:59;8.60;99.90
4596;DHT22;2310;49.978;8.742;2023-01-15T04:52:00;8.80;99.90
4596;DHT22;2310;49.978;8.742;2023-01-15T04:56:05;8.50;99.90
4596;DHT22;2310;49.978;8.742;2023-01-15T05:00:07;8.60;99.90
4596;DHT22;2310;49.978;8.742;2023-01-15T05:04:09;8.70;99.90
4596;DHT22;2310;49.978;8.742;2023-01-15T05:08:10;8.60;99.90
4596;DHT22;2310;49.978;8.742;2023-01-15T05:12:11;8.30;99.90
4596;DHT22;2310;49.978;8.742;2023-01-15T05:16:18;8.30;99.90
4596;DHT22;2310;49.978;8.742;2023-01-15T05:20:19;8.50;99.90
4596;DHT22;2310;49.978;8.742;2023-01-15T05:24:20;8.50;99.90
4596;DHT22;2310;49.978;8.742;2023-01-15T05:28:22;8.60;99.90
4596;DHT22;2310;49.978;8.742;2023-01-15T05:32:23;8.60;99.90
4596;DHT22;2310;49.978;8.742;2023-01-15T05:36:27;8.70;99.90
4596;DHT22;2310;49.978;8.742;2023-01-15T05:40:29;8.80;99.90
4596;DHT22;2310;49.978;8.742;2023-01-15T05:44:30;8.80;99.90
4596;DHT22;2310;49.978;8.742;2023-01-15T05:51:07;8.90;99.90
4596;DHT22;2310;49.978;8.742;2023-01-15T05:55:08;8.70;99.90
4596;DHT22;2310;49.978;8.742;2023-01-15T05:59:10;8.80;99.90
4596;DHT22;2310;49.978;8.742;2023-01-15T06:03:12;8.80;99.90
4596;DHT22;2310;49.978;8.742;2023-01-15T06:07:13;8.70;99.90
4596;DHT22;2310;49.978;8.742;2023-01-15T06:11:14;8.60;99.90
4596;DHT22;2310;49.978;8.742;2023-01-15T06:15:16;8.60;99.90
4596;DHT22;2310;49.978;8.742;2023-01-15T06:19:17;8.60;99.90
4596;DHT22;2310;49.978;8.742;2023-01-15T06:23:18;8.50;99.90
4596;DHT22;2310;49.978;8.742;2023-01-15T06:27:19;8.40;99.90
4596;DHT22;2310;49.978;8.742;2023-01-15T06:31:22;8.30;99.90
4596;DHT22;2310;49.978;8.742;2023-01-15T06:35:24;8.30;99.90
4596;DHT22;2310;49.978;8.742;2023-01-15T06:39:25;8.30;99.90
4596;DHT22;2310;49.978;8.742;2023-01-15T06:43:27;8.00;99.90
4596;DHT22;2310;49.978;8.742;2023-01-15T06:47:35;8.10;99.90
4596;DHT22;2310;49.978;8.742;2023-01-15T06:51:37;8.30;99.90
4596;DHT22;2310;49.978;8.742;2023-01-15T06:55:38;8.20;99.90
4596;DHT22;2310;49.978;8.742;2023-01-15T06:59:39;8.40;99.90
4596;DHT22;2310;49.978;8.742;2023-01-15T07:03:40;8.30;99.90
4596;DHT22;2310;49.978;8.742;2023-01-15T07:07:42;8.30;99.90
4596;DHT22;2310;49.978;8.742;2023-01-15T07:11:43;8.40;99.90
4596;DHT22;2310;49.978;8.742;2023-01-15T07:15:50;8.40;99.90
4596;DHT22;2310;49.978;8.742;2023-01-15T07:19:51;8.40;99.90
4596;DHT22;2310;49.978;8.742;2023-01-15T07:23:53;8.40;99.90
4596;DHT22;2310;49.978;8.742;2023-01-15T07:27:55;8.50;99.90
4596;DHT22;2310;49.978;8.742;2023-01-15T07:31:56;8.60;99.90
4596;DHT22;2310;49.978;8.742;2023-01-15T07:35:57;8.60;99.90
4596;DHT22;2310;49.978;8.742;2023-01-15T07:40:00;8.50;99.90
4596;DHT22;2310;49.978;8.742;2023-01-15T07:44:01;8.40;99.90
4596;DHT22;2310;49.978;8.742;2023-01-15T07:48:21;8.40;99.90
4596;DHT22;2310;49.978;8.742;2023-01-15T07:52:40;8.60;99.90
4596;DHT22;2310;49.978;8.742;2023-01-15T07:56:41;8.40;99.90
4596;DHT22;2310;49.978;8.742;2023-01-15T08:00:43;8.30;99.90
4596;DHT22;2310;49.978;8.742;2023-01-15T08:04:44;8.30;99.90
4596;DHT22;2310;49.978;8.742;2023-01-15T08:08:47;8.30;99.90
4596;DHT22;2310;49.978;8.742;2023-01-15T08:12:48;8.40;99.90
4596;DHT22;2310;49.978;8.742;2023-01-15T08:17:08;8.30;99.90
4596;DHT22;2310;49.978;8.742;2023-01-15T08:21:13;8.30;99.90
4596;DHT22;2310;49.978;8.742;2023-01-15T08:25:18;8.10;99.90
4596;DHT22;2310;49.978;8.742;2023-01-15T08:29:20;7.90;99.90
4596;DHT22;2310;49.978;8.742;2023-01-15T08:33:22;8.00;99.90
4596;DHT22;2310;49.978;8.742;2023-01-15T08:37:23;7.90;99.90
4596;DHT22;2310;49.978;8.742;2023-01-15T08:41:26;7.80;99.90
4596;DHT22;2310;49.978;8.742;2023-01-15T08:45:27;7.80;99.90
4596;DHT22;2310;49.978;8.742;2023-01-15T08:49:28;8.00;99.90
4596;DHT22;2310;49.978;8.742;2023-01-15T08:53:30;8.00;99.90
4596;DHT22;2310;49.978;8.742;2023-01-15T08:57:31;8.10;99.90
4596;DHT22;2310;49.978;8.742;2023-01-15T09:01:33;8.00;99.90
4596;DHT22;2310;49.978;8.742;2023-01-15T09:05:36;8.00;99.90
4596;DHT22;2310;49.978;8.742;2023-01-15T09:09:37;8.00;99.90
4596;DHT22;2310;49.978;8.742;2023-01-15T09:13:38;7.90;99.90
4596;DHT22;2310;49.978;8.742;2023-01-15T09:17:40;8.00;99.90
4596;DHT22;2310;49.978;8.742;2023-01-15T09:21:41;8.00;99.90
4596;DHT22;2310;49.978;8.742;2023-01-15T09:25:52;8.10;99.90
4596;DHT22;2310;49.978;8.742;2023-01-15T09:29:54;8.10;99.90
4596;DHT22;2310;49.978;8.742;2023-01-15T09:33:56;8.20;99.90
4596;DHT22;2310;49.978;8.742;2023-01-15T09:37:57;8.20;99.90
4596;DHT22;2310;49.978;8.742;2023-01-15T09:45:56;8.20;99.90
4596;DHT22;2310;49.978;8.742;2023-01-15T09:54:31;8.30;99.90
4596;DHT22;2310;49.978;8.742;2023-01-15T09:58:34;8.40;99.90
4596;DHT22;2310;49.978;8.742;2023-01-15T10:02:48;8.20;99.90
4596;DHT22;2310;49.978;8.742;2023-01-15T10:06:57;8.30;99.90
4596;DHT22;2310;49.978;8.742;2023-01-15T10:11:02;8.50;99.90
4596;DHT22;2310;49.978;8.742;2023-01-15T10:15:30;8.30;99.90
4596;DHT22;2310;49.978;8.742;2023-01-15T10:19:29;8.20;99.90
4596;DHT22;2310;49.978;8.742;2023-01-15T10:27:52;8.20;99.90
4596;DHT22;2310;49.978;8.742;2023-01-15T10:36:16;8.20;99.90
4596;DHT22;2310;49.978;8.742;2023-01-15T10:40:34;8.10;99.90
4596;DHT22;2310;49.978;8.742;2023-01-15T10:48:58;7.80;99.90
4596;DHT22;2310;49.978;8.742;2023-01-15T10:53:26;8.00;99.90
4596;DHT22;2310;49.978;8.742;2023-01-15T10:57:45;7.90;99.90
4596;DHT22;2310;49.978;8.742;2023-01-15T11:01:46;8.00;99.90
4596;DHT22;2310;49.978;8.742;2023-01-15T11:05:48;7.90;99.90
4596;DHT22;2310;49.978;8.742;2023-01-15T11:09:50;7.70;99.90
4596;DHT22;2310;49.978;8.742;2023-01-15T11:13:53;7.70;99.90
4596;DHT22;2310;49.978;8.742;2023-01-15T11:18:23;7.60;99.90
4596;DHT22;2310;49.978;8.742;2023-01-15T11:22:42;7.60;99.90
4596;DHT22;2310;49.978;8.742;2023-01-15T11:26:47;7.70;99.90
4596;DHT22;2310;49.978;8.742;2023-01-15T11:30:53;7.70;99.90
4596;DHT22;2310;49.978;8.742;2023-01-15T11:35:00;7.70;99.90
4596;DHT22;2310;49.978;8.742;2023-01-15T11:39:02;7.70;99.90
4596;DHT22;2310;49.978;8.742;2023-01-15T11:43:40;7.70;99.90
4596;DHT22;2310;49.978;8.742;2023-01-15T11:47:33;7.80;99.90
4596;DHT22;2310;49.978;8.742;2023-01-15T11:51:55;7.90;99.90
4596;DHT22;2310;49.978;8.742;2023-01-15T11:56:07;8.00;99.90
4596;DHT22;2310;49.978;8.742;2023-01-15T12:00:27;8.10;99.90
4596;DHT22;2310;49.978;8.742;2023-01-15T12:04:37;8.00;99.90
4596;DHT22;2310;49.978;8.742;2023-01-15T12:08:45;8.70;99.90
4596;DHT22;2310;49.978;8.742;2023-01-15T12:13:00;9.30;99.90
4596;DHT22;2310;49.978;8.742;2023-01-15T12:17:25;9.10;99.90
4596;DHT22;2310;49.978;8.742;2023-01-15T12:30:12;9.40;99.90
4596;DHT22;2310;49.978;8.742;2023-01-15T12:39:02;9.40;99.90
4596;DHT22;2310;49.978;8.742;2023-01-15T12:43:11;9.10;99.90
4596;DHT22;2310;49.978;8.742;2023-01-15T12:51:53;9.90;99.90
4596;DHT22;2310;49.978;8.742;2023-01-15T13:00:23;10.00;99.90
4596;DHT22;2310;49.978;8.742;2023-01-15T13:04:38;9.80;99.90
4596;DHT22;2310;49.978;8.742;2023-01-15T13:09:01;10.10;99.90
4596;DHT22;2310;49.978;8.742;2023-01-15T13:13:21;9.90;99.90
4596;DHT22;2310;49.978;8.742;2023-01-15T13:21:39;9.40;99.90
4596;DHT22;2310;49.978;8.742;2023-01-15T13:29:51;8.60;99.90
4596;DHT22;2310;49.978;8.742;2023-01-15T13:33:53;8.40;99.90
4596;DHT22;2310;49.978;8.742;2023-01-15T13:37:57;8.50;99.90
4596;DHT22;2310;49.978;8.742;2023-01-15T13:42:00;8.30;99.90
4596;DHT22;2310;49.978;8.742;2023-01-15T13:46:20;8.40;99.90
4596;DHT22;2310;49.978;8.742;2023-01-15T13:50:29;8.50;99.90
4596;DHT22;2310;49.978;8.742;2023-01-15T13:54:27;8.30;99.90
4596;DHT22;2310;49.978;8.742;2023-01-15T13:58:30;8.60;99.90
4596;DHT22;2310;49.978;8.742;2023-01-15T14:02:37;8.60;99.90
4596;DHT22;2310;49.978;8.742;2023-01-15T14:06:48;8.80;99.90
4596;DHT22;2310;49.978;8.742;2023-01-15T14:10:49;8.80;99.90
4596;DHT22;2310;49.978;8.742;2023-01-15T14:15:22;8.60;99.90
4596;DHT22;2310;49.978;8.742;2023-01-15T14:36:34;8.50;99.90
4596;DHT22;2310;49.978;8.742;2023-01-15T14:40:35;8.50;99.90
4596;DHT22;2310;49.978;8.742;2023-01-15T14:44:37;8.60;99.90
4596;DHT22;2310;49.978;8.742;2023-01-15T14:48:38;8.70;99.90
4596;DHT22;2310;49.978;8.742;2023-01-15T14:52:42;8.50;99.90
4596;DHT22;2310;49.978;8.742;2023-01-15T14:56:54;8.30;99.90
4596;DHT22;2310;49.978;8.742;2023-01-15T15:00:58;8.50;99.90
4596;DHT22;2310;49.978;8.742;2023-01-15T15:05:04;8.50;99.90
4596;DHT22;2310;49.978;8.742;2023-01-15T15:09:09;8.40;99.90
4596;DHT22;2310;49.978;8.742;2023-01-15T15:13:33;8.40;99.90
4596;DHT22;2310;49.978;8.742;2023-01-15T15:17:52;8.40;99.90
4596;DHT22;2310;49.978;8.742;2023-01-15T15:21:51;8.40;99.90
4596;DHT22;2310;49.978;8.742;2023-01-15T15:25:56;8.60;99.90
4596;DHT22;2310;49.978;8.742;2023-01-15T15:30:06;8.60;99.90
4596;DHT22;2310;49.978;8.742;2023-01-15T15:34:06;8.30;99.90
4596;DHT22;2310;49.978;8.742;2023-01-15T15:38:14;8.40;99.90
4596;DHT22;2310;49.978;8.742;2023-01-15T15:42:35;8.20;99.90
4596;DHT22;2310;49.978;8.742;2023-01-15T15:46:55;8.20;99.90
4596;DHT22;2310;49.978;8.742;2023-01-15T15:51:27;8.20;99.90
4596;DHT22;2310;49.978;8.742;2023-01-15T15:55:41;8.10;99.90
4596;DHT22;2310;49.978;8.742;2023-01-15T15:59:45;8.10;99.90
4596;DHT22;2310;49.978;8.742;2023-01-15T16:03:48;7.90;99.90
4596;DHT22;2310;49.978;8.742;2023-01-15T16:07:50;8.00;99.90
4596;DHT22;2310;49.978;8.742;2023-01-15T16:11:52;8.00;99.90
4596;DHT22;2310;49.978;8.742;2023-01-15T16:15:57;8.20;99.90
4596;DHT22;2310;49.978;8.742;2023-01-15T16:19:59;8.20;99.90
4596;DHT22;2310;49.978;8.742;2023-01-15T16:24:03;8.20;99.90
4596;DHT22;2310;49.978;8.742;2023-01-15T16:28:05;8.20;99.90
4596;DHT22;2310;49.978;8.742;2023-01-15T16:32:12;8.10;99.90
4596;DHT22;2310;49.978;8.742;2023-01-15T16:36:13;7.90;99.90
4596;DHT22;2310;49.978;8.742;2023-01-15T16:40:20;7.90;99.90
4596;DHT22;2310;49.978;8.742;2023-01-15T16:44:40;8.00;99.90
4596;DHT22;2310;49.978;8.742;2023-01-15T16:48:43;8.20;99.90
4596;DHT22;2310;49.978;8.742;2023-01-15T16:52:50;8.20;99.90
4596;DHT22;2310;49.978;8.742;2023-01-15T16:56:52;8.10;99.90
4596;DHT22;2310;49.978;8.742;2023-01-15T17:00:53;8.10;99.90
4596;DHT22;2310;49.978;8.742;2023-01-15T17:04:56;7.80;99.90
4596;DHT22;2310;49.978;8.742;2023-01-15T17:08:58;7.50;99.90
4596;DHT22;2310;49.978;8.742;2023-01-15T17:12:59;7.50;99.90
4596;DHT22;2310;49.978;8.742;2023-01-15T17:21:22;7.50;99.90
4596;DHT22;2310;49.978;8.742;2023-01-15T17:25:28;7.70;99.90
4596;DHT22;2310;49.978;8.742;2023-01-15T17:29:31;7.70;99.90
4596;DHT22;2310;49.978;8.742;2023-01-15T17:33:32;7.70;99.90
4596;DHT22;2310;49.978;8.742;2023-01-15T17:37:33;7.80;99.90
4596;DHT22;2310;49.978;8.742;2023-01-15T17:41:34;7.80;99.90
4596;DHT22;2310;49.978;8.742;2023-01-15T17:45:36;7.80;99.90
4596;DHT22;2310;49.978;8.742;2023-01-15T17:49:37;7.50;99.90
4596;DHT22;2310;49.978;8.742;2023-01-15T17:53:39;7.40;99.90
4596;DHT22;2310;49.978;8.742;2023-01-15T17:57:41;7.30;99.90
4596;DHT22;2310;49.978;8.742;2023-01-15T18:02:09;7.20;99.90
4596;DHT22;2310;49.978;8.742;2023-01-15T18:06:30;7.40;99.90
4596;DHT22;2310;49.978;8.742;2023-01-15T18:10:33;7.60;99.90
4596;DHT22;2310;49.978;8.742;2023-01-15T18:14:34;7.60;99.90
4596;DHT22;2310;49.978;8.742;2023-01-15T18:18:35;7.70;99.90
4596;DHT22;2310;49.978;8.742;2023-01-15T18:22:36;7.70;99.90
4596;DHT22;2310;49.978;8.742;2023-01-15T18:26:39;7.90;99.90
4596;DHT22;2310;49.978;8.742;2023-01-15T18:30:42;7.90;99.90
4596;DHT22;2310;49.978;8.742;2023-01-15T18:34:43;8.00;99.90
4596;DHT22;2310;49.978;8.742;2023-01-15T18:38:44;7.90;99.90
4596;DHT22;2310;49.978;8.742;2023-01-15T18:42:47;7.90;99.90
4596;DHT22;2310;49.978;8.742;2023-01-15T18:47:12;7.90;99.90
4596;DHT22;2310;49.978;8.742;2023-01-15T18:51:13;7.90;99.90
4596;DHT22;2310;49.978;8.742;2023-01-15T18:55:16;7.90;99.90
4596;DHT22;2310;49.978;8.742;2023-01-15T18:59:17;7.90;99.90
4596;DHT22;2310;49.978;8.742;2023-01-15T19:03:18;8.00;99.90
4596;DHT22;2310;49.978;8.742;2023-01-15T19:07:19;7.90;99.90
4596;DHT22;2310;49.978;8.742;2023-01-15T19:11:21;7.90;99.90
4596;DHT22;2310;49.978;8.742;2023-01-15T19:15:22;7.90;99.90
4596;DHT22;2310;49.978;8.742;2023-01-15T19:19:42;7.90;99.90
4596;DHT22;2310;49.978;8.742;2023-01-15T19:23:43;7.80;99.90
4596;DHT22;2310;49.978;8.742;2023-01-15T19:27:45;7.80;99.90
4596;DHT22;2310;49.978;8.742;2023-01-15T19:31:48;7.90;99.90
4596;DHT22;2310;49.978;8.742;2023-01-15T19:35:51;7.80;99.90
4596;DHT22;2310;49.978;8.742;2023-01-15T19:39:53;7.70;99.90
4596;DHT22;2310;49.978;8.742;2023-01-15T19:43:54;7.60;99.90
4596;DHT22;2310;49.978;8.742;2023-01-15T19:48:14;7.80;99.90
4596;DHT22;2310;49.978;8.742;2023-01-15T19:52:35;7.60;99.90
4596;DHT22;2310;49.978;8.742;2023-01-15T19:56:37;7.80;99.90
4596;DHT22;2310;49.978;8.742;2023-01-15T20:00:39;7.80;99.90
4596;DHT22;2310;49.978;8.742;2023-01-15T20:04:44;7.80;99.90
4596;DHT22;2310;49.978;8.742;2023-01-15T20:08:45;7.70;99.90
4596;DHT22;2310;49.978;8.742;2023-01-15T20:12:47;7.70;99.90
4596;DHT22;2310;49.978;8.742;2023-01-15T20:17:06;7.60;99.90
4596;DHT22;2310;49.978;8.742;2023-01-15T20:21:08;7.50;99.90
4596;DHT22;2310;49.978;8.742;2023-01-15T20:25:11;7.60;99.90
4596;DHT22;2310;49.978;8.742;2023-01-15T20:29:13;7.50;99.90
4596;DHT22;2310;49.978;8.742;2023-01-15T20:33:14;7.40;99.90
4596;DHT22;2310;49.978;8.742;2023-01-15T20:37:15;7.20;99.90
4596;DHT22;2310;49.978;8.742;2023-01-15T20:41:16;7.20;99.90
4596;DHT22;2310;49.978;8.742;2023-01-15T20:45:37;7.00;99.90
4596;DHT22;2310;49.978;8.742;2023-01-15T20:49:38;7.00;99.90
4596;DHT22;2310;49.978;8.742;2023-01-15T20:53:39;7.20;99.90
4596;DHT22;2310;49.978;8.742;2023-01-15T20:57:41;7.10;99.90
4596;DHT22;2310;49.978;8.742;2023-01-15T21:01:43;7.20;99.90
4596;DHT22;2310;49.978;8.742;2023-01-15T21:05:44;7.00;99.90
4596;DHT22;2310;49.978;8.742;2023-01-15T21:09:45;6.90;99.90
4596;DHT22;2310;49.978;8.742;2023-01-15T21:13:46;7.10;99.90
4596;DHT22;2310;49.978;8.742;2023-01-15T21:17:47;6.90;99.90
4596;DHT22;2310;49.978;8.742;2023-01-15T21:21:49;6.90;99.90
4596;DHT22;2310;49.978;8.742;2023-01-15T21:25:50;7.10;99.90
4596;DHT22;2310;49.978;8.742;2023-01-15T21:29:51;7.30;99.90
4596;DHT22;2310;49.978;8.742;2023-01-15T21:33:54;7.40;99.90
4596;DHT22;2310;49.978;8.742;2023-01-15T21:37:55;7.30;99.90
4596;DHT22;2310;49.978;8.742;2023-01-15T21:41:57;7.50;99.90
4596;DHT22;2310;49.978;8.742;2023-01-15T21:46:17;7.50;99.90
4596;DHT22;2310;49.978;8.742;2023-01-15T21:50:18;7.40;99.90
4596;DHT22;2310;49.978;8.742;2023-01-15T21:54:20;7.50;99.90
4596;DHT22;2310;49.978;8.742;2023-01-15T21:58:21;7.30;99.90
4596;DHT22;2310;49.978;8.742;2023-01-15T22:02:22;7.30;99.90
4596;DHT22;2310;49.978;8.742;2023-01-15T22:06:24;7.30;99.90
4596;DHT22;2310;49.978;8.742;2023-01-15T22:10:25;7.10;99.90
4596;DHT22;2310;49.978;8.742;2023-01-15T22:14:28;7.30;99.90
4596;DHT22;2310;49.978;8.742;2023-01-15T22:18:31;7.20;99.90
4596;DHT22;2310;49.978;8.742;2023-01-15T22:22:33;7.40;99.90
4596;DHT22;2310;49.978;8.742;2023-01-15T22:26:36;7.30;99.90
4596;DHT22;2310;49.978;8.742;2023-01-15T22:30:38;7.20;99.90
4596;DHT22;2310;49.978;8.742;2023-01-15T22:34:39;7.30;99.90
4596;DHT22;2310;49.978;8.742;2023-01-15T22:38:40;7.40;99.90
4596;DHT22;2310;49.978;8.742;2023-01-15T22:42:41;7.30;99.90
4596;DHT22;2310;49.978;8.742;2023-01-15T22:46:43;7.30;99.90
4596;DHT22;2310;49.978;8.742;2023-01-15T22:50:45;7.30;99.90
4596;DHT22;2310;49.978;8.742;2023-01-15T22:54:46;7.10;99.90
4596;DHT22;2310;49.978;8.742;2023-01-15T22:58:47;7.20;99.90
4596;DHT22;2310;49.978;8.742;2023-01-15T23:02:48;7.10;99.90
4596;DHT22;2310;49.978;8.742;2023-01-15T23:06:56;7.10;99.90
4596;DHT22;2310;49.978;8.742;2023-01-15T23:10:57;7.00;99.90
4596;DHT22;2310;49.978;8.742;2023-01-15T23:14:58;7.00;99.90
4596;DHT22;2310;49.978;8.742;2023-01-15T23:19:00;6.90;99.90
4596;DHT22;2310;49.978;8.742;2023-01-15T23:23:07;7.00;99.90
4596;DHT22;2310;49.978;8.742;2023-01-15T23:27:14;6.80;99.90
4596;DHT22;2310;49.978;8.742;2023-01-15T23:31:16;7.00;99.90
4596;DHT22;2310;49.978;8.742;2023-01-15T23:35:18;7.20;99.90
4596;DHT22;2310;49.978;8.742;2023-01-15T23:39:19;7.00;99.90
4596;DHT22;2310;49.978;8.742;2023-01-15T23:43:21;7.20;99.90
4596;DHT22;2310;49.978;8.742;2023-01-15T23:47:41;7.20;99.90
4596;DHT22;2310;49.978;8.742;2023-01-15T23:51:42;7.20;99.90
4596;DHT22;2310;49.978;8.742;2023-01-15T23:55:43;7.10;99.90
4596;DHT22;2310;49.978;8.742;2023-01-15T23:59:44;7.00;99.90
